Airfield :







YOU CAN JOIN US ON...

 
LOGIN :

Register | Disclaimer

   EN    FR    IT 

 









Legend :    VFR   Marginal VFR   IFR   Intensive IFR   Very Intensive IFR
Visi :
Ceiling :
>= 8 km
>= 3000ft
5 to 8 km
1000 to 3000 ft
1500m to 5 km
500 to 1000 ft
800 to 1500m
200 to 500 ft
< 800m
< 200 ft
Symbols :   Thunderstorms  Fog  Heavy snow  Heavy precipitations  Wind > 20 kt







- Airport Elevation : 1808 ft
- IATA code : YWK


CYWK - Wabush

CURRENT METAR :
  • 242100Z 36013G23KT 15SM SKC 17/M02 A2982 RMK SLP113 DENSITY ALT 2600FT

EXPIRED METARs :
  • 242000Z 01013G23KT 15SM FEW060 17/00 A2981 RMK SC1 SLP110 DENSITY ALT 2600FT
  • 241900Z 01012G22KT 15SM FEW060 FEW200 17/02 A2981 RMK SC1CI1 SLP107 DENSITY ALT 2600FT

TAF TAF CYWK
Valid from the 24 at 20:00 until the 25 at 08:00 UTC


241938Z 2420/2508 01012G22KT P6SM FEW060
BECMG 2500/2502 35010KT RMK NXT FCST BY 250200Z
CZUL FIR / North America



MET'MAP, your aeronautical weather chart ! - Copyright ORBIFLY December 2007 - Disclaimer

ORBIFLY MET'MAP TEAM :

Programming & Development : Alexandra Zaïnal
Concept & Development : Baudouin d'Aumeries
Co-Development & Prog : Marc-Olivier Méhu
Technical & hardware support : Manuel Goepfert

Contact : metmap@orbifly.com




SOURCES & CREDITS :

   NOAA